Time;durP1;ratioP1;P1;durP2;ratioP2;P2;SDS_P1;SDS_P2;PMS_P1;PMS_P2;Temp;Humidity;BMP_temperature;BMP_pressure;BME280_temperature;BME280_humidity;BME280_pressure;Samples;Min_cycle;Max_cycle;Signal;HPM_P1;HPM_P2
2022/12/25 00:00:35;;;;;;;47.53;14.52;;;;;;;4.43;79.79;101041.28;6233798;23;20032;-71
2022/12/25 00:03:01;;;;;;;55.63;14.68;;;;;;;4.30;79.93;101051.91;6238160;23;20015;-69
2022/12/25 00:05:28;;;;;;;54.55;15.95;;;;;;;4.28;80.08;101044.06;6237058;22;20079;-69
2022/12/25 00:07:55;;;;;;;47.28;14.93;;;;;;;4.23;80.84;101043.53;6250023;23;20060;-72
2022/12/25 00:10:21;;;;;;;46.75;14.82;;;;;;;4.05;80.45;101042.22;6225426;22;20025;-71
2022/12/25 00:12:48;;;;;;;42.65;15.10;;;;;;;4.06;80.69;101046.56;6237997;22;20024;-71
2022/12/25 00:15:15;;;;;;;46.65;14.38;;;;;;;3.96;80.81;101048.19;6238382;22;20009;-72
2022/12/25 00:17:41;;;;;;;49.22;15.10;;;;;;;4.01;81.04;101041.59;6238702;22;20072;-70
2022/12/25 00:20:08;;;;;;;59.33;16.42;;;;;;;4.00;80.60;101047.88;6237613;22;20035;-71
2022/12/25 00:22:35;;;;;;;44.33;15.10;;;;;;;4.16;80.26;101047.59;6237697;23;20032;-69
2022/12/25 00:25:02;;;;;;;59.25;15.32;;;;;;;4.14;80.40;101044.22;6238116;22;20036;-69
2022/12/25 00:27:32;;;;;;;50.25;15.70;;;;;;;3.92;80.61;101044.06;6239266;23;20024;-68
2022/12/25 00:29:59;;;;;;;60.35;15.82;;;;;;;3.85;80.97;101049.78;6237041;23;20028;-68
2022/12/25 00:32:26;;;;;;;50.60;15.75;;;;;;;3.89;80.55;101054.88;6240353;22;20044;-71
2022/12/25 00:34:52;;;;;;;50.28;15.18;;;;;;;4.03;80.25;101052.09;6235660;23;20031;-70
2022/12/25 00:37:19;;;;;;;52.83;15.85;;;;;;;3.89;80.16;101047.78;6236545;23;20056;-70
2022/12/25 00:39:48;;;;;;;48.75;13.82;;;;;;;3.95;80.61;101051.81;6237266;23;20009;-69
2022/12/25 00:42:17;;;;;;;53.90;15.98;;;;;;;4.03;80.09;101052.94;6236883;22;20005;-71
2022/12/25 00:44:45;;;;;;;47.53;15.25;;;;;;;3.98;80.46;101056.91;6237520;23;20025;-71
2022/12/25 00:47:11;;;;;;;40.78;15.45;;;;;;;3.90;79.94;101061.88;6235376;22;20020;-72
2022/12/25 00:49:38;;;;;;;55.55;15.73;;;;;;;3.86;80.36;101064.78;6237193;22;20076;-71
2022/12/25 00:52:06;;;;;;;43.03;15.95;;;;;;;3.86;80.31;101067.44;6236471;23;20021;-71
2022/12/25 00:54:32;;;;;;;50.22;16.05;;;;;;;3.79;80.46;101087.41;6238016;22;20047;-71
2022/12/25 00:56:59;;;;;;;49.47;16.05;;;;;;;3.93;80.05;101082.91;6236002;22;20044;-69
2022/12/25 00:59:25;;;;;;;51.22;15.95;;;;;;;3.89;79.73;101086.75;6238552;22;20051;-71
2022/12/25 01:01:52;;;;;;;44.10;14.73;;;;;;;3.88;79.87;101085.06;6237668;23;20012;-71
2022/12/25 01:04:18;;;;;;;45.65;16.52;;;;;;;3.85;79.94;101086.94;6236928;23;20016;-72
2022/12/25 01:06:45;;;;;;;47.53;15.23;;;;;;;3.77;80.28;101091.13;6235646;22;20108;-70
2022/12/25 01:11:56;;;;;;;45.25;14.88;;;;;;;3.84;79.86;101090.56;6241988;23;20444;-72
2022/12/25 01:14:23;;;;;;;40.83;15.43;;;;;;;3.88;79.73;101087.72;6238370;22;20048;-71
2022/12/25 01:16:50;;;;;;;40.22;15.93;;;;;;;3.63;80.12;101087.59;6238087;22;20020;-70
2022/12/25 01:19:16;;;;;;;48.47;16.27;;;;;;;3.77;79.90;101093.78;6247764;23;20012;-70
2022/12/25 01:21:43;;;;;;;53.22;16.98;;;;;;;3.82;79.55;101103.09;6235966;22;20016;-70
2022/12/25 01:24:09;;;;;;;46.05;16.63;;;;;;;3.77;79.76;101104.38;6235041;22;20012;-70
2022/12/25 01:26:36;;;;;;;44.28;16.08;;;;;;;3.61;79.57;101104.59;6236904;22;20020;-70
2022/12/25 01:29:02;;;;;;;57.85;18.00;;;;;;;3.71;79.90;101120.72;6236233;22;20028;-71
2022/12/25 01:31:29;;;;;;;52.63;15.98;;;;;;;3.52;79.90;101126.47;6238308;22;20039;-69
2022/12/25 01:33:56;;;;;;;50.70;15.32;;;;;;;3.63;80.03;101121.25;6238223;22;20052;-72
2022/12/25 01:36:25;;;;;;;51.55;15.88;;;;;;;3.65;80.21;101132.59;6239835;23;20045;-72
2022/12/25 01:38:53;;;;;;;41.47;15.52;;;;;;;3.65;79.58;101134.41;6240984;22;20004;-72
2022/12/25 01:41:21;;;;;;;52.97;16.67;;;;;;;3.65;79.22;101137.06;6232330;22;20011;-71
2022/12/25 01:44:06;;;;;;;51.58;16.27;;;;;;;3.63;79.87;101135.38;6240413;22;20044;-71
2022/12/25 01:46:34;;;;;;;40.88;13.65;;;;;;;3.58;79.23;101139.28;6239637;22;20054;-69
2022/12/25 01:49:04;;;;;;;48.38;16.10;;;;;;;3.56;79.84;101133.25;6241934;22;20001;-71
2022/12/25 01:51:34;;;;;;;42.90;15.57;;;;;;;3.48;79.96;101133.78;6240841;22;20001;-71
2022/12/25 01:54:04;;;;;;;49.10;17.13;;;;;;;3.59;79.63;101138.34;6240625;23;20023;-72
2022/12/25 01:56:32;;;;;;;47.28;16.65;;;;;;;3.58;79.50;101137.47;6237597;22;20004;-72
2022/12/25 01:59:01;;;;;;;44.50;15.55;;;;;;;3.59;79.50;101135.69;6239713;23;20015;-71
2022/12/25 02:01:27;;;;;;;45.90;16.65;;;;;;;3.58;79.78;101141.94;6239635;23;20016;-71
2022/12/25 02:04:00;;;;;;;51.63;16.00;;;;;;;3.55;79.78;101147.44;6239883;22;20016;-71
2022/12/25 02:07:22;;;;;;;46.90;16.27;;;;;;;3.38;79.56;101151.25;6240114;23;20035;-71
2022/12/25 02:09:50;;;;;;;41.83;15.65;;;;;;;3.38;79.92;101146.81;6239019;22;20011;-70
2022/12/25 02:12:21;;;;;;;38.55;16.15;;;;;;;3.42;79.69;101146.59;6240335;23;20033;-71
2022/12/25 02:14:50;;;;;;;48.13;16.50;;;;;;;3.44;79.60;101150.81;6239638;22;20005;-70
2022/12/25 02:17:37;;;;;;;46.42;17.20;;;;;;;3.43;79.49;101143.00;6239254;23;20027;-72
2022/12/25 02:20:15;;;;;;;48.63;16.58;;;;;;;3.40;79.52;101149.34;6239133;23;20020;-71
2022/12/25 02:23:19;;;;;;;43.13;18.05;;;;;;;3.44;79.33;101145.53;6239186;22;20072;-71
2022/12/25 02:26:18;;;;;;;49.50;16.20;;;;;;;3.23;79.47;101155.78;6239076;22;20040;-71
2022/12/25 02:28:54;;;;;;;52.47;15.95;;;;;;;3.23;79.60;101150.47;6238670;22;20025;-71
2022/12/25 02:31:26;;;;;;;48.75;16.85;;;;;;;3.23;79.40;101153.13;6238419;22;20024;-72
2022/12/25 02:34:25;;;;;;;45.55;16.50;;;;;;;3.18;79.78;101157.03;6238444;22;20036;-71
2022/12/25 02:37:06;;;;;;;51.28;16.42;;;;;;;3.11;80.03;101176.00;6238469;22;20012;-70
2022/12/25 02:39:56;;;;;;;57.17;16.70;;;;;;;3.08;80.31;101172.69;6239949;22;20007;-69
2022/12/25 03:06:41;;;;;;;40.38;16.85;;;;;;;2.82;80.98;101169.97;6240102;22;20013;-72
2022/12/25 03:07:41;;;;;;;53.25;16.08;;;;;;;2.49;81.29;101172.94;6236675;23;20035;-69
2022/12/25 03:13:08;;;;;;;41.30;15.15;;;;;;;2.61;80.77;101161.56;6238979;22;20051;-71
2022/12/25 03:18:25;;;;;;;39.42;15.90;;;;;;;2.60;81.04;101166.97;6235802;22;20019;-71
2022/12/25 03:31:10;;;;;;;39.60;14.90;;;;;;;2.40;80.65;101194.69;6235589;22;20004;-70
2022/12/25 03:32:33;;;;;;;40.15;14.25;;;;;;;2.57;80.78;101183.91;6236283;22;20056;-69
2022/12/25 03:35:27;;;;;;;42.45;15.23;;;;;;;2.56;80.32;101186.66;6237155;23;20009;-69
2022/12/25 04:37:57;;;;;;;42.05;16.58;;;;;;;2.10;80.25;101213.34;6238547;22;20016;-71
2022/12/25 04:40:23;;;;;;;51.90;15.38;;;;;;;2.03;80.83;101219.97;6239181;22;20025;-70
2022/12/25 04:42:51;;;;;;;49.75;15.00;;;;;;;2.08;80.47;101228.47;6238994;22;20021;-71
2022/12/25 04:45:18;;;;;;;53.25;15.68;;;;;;;2.12;80.14;101228.19;6238283;23;20027;-71
2022/12/25 04:47:44;;;;;;;41.38;16.15;;;;;;;2.05;80.39;101241.88;6238198;22;20044;-71
2022/12/25 04:50:11;;;;;;;53.25;15.38;;;;;;;2.13;80.31;101245.78;6226926;23;20031;-69
2022/12/25 04:52:39;;;;;;;53.78;16.75;;;;;;;2.27;80.02;101241.41;6238335;22;20024;-69
2022/12/25 04:55:07;;;;;;;54.90;15.82;;;;;;;2.12;79.80;101227.31;6238275;23;20025;-71
2022/12/25 04:57:34;;;;;;;45.78;15.38;;;;;;;2.25;79.83;101219.50;6237697;22;20027;-70
2022/12/25 05:00:00;;;;;;;49.60;17.08;;;;;;;2.25;79.59;101238.88;6239233;22;20020;-72
2022/12/25 05:02:27;;;;;;;46.22;16.65;;;;;;;2.22;79.66;101222.31;6236941;22;20012;-71
2022/12/25 05:04:53;;;;;;;48.60;16.25;;;;;;;2.31;79.54;101221.78;6238271;22;20031;-70
2022/12/25 05:07:20;;;;;;;43.83;15.00;;;;;;;2.34;79.36;101227.72;6237572;22;20024;-71
2022/12/25 05:09:46;;;;;;;52.67;16.45;;;;;;;2.32;79.26;101224.31;6238336;22;20008;-70
2022/12/25 05:12:13;;;;;;;56.58;15.75;;;;;;;2.21;79.57;101226.78;6238044;23;20004;-71
2022/12/25 05:14:40;;;;;;;53.63;16.55;;;;;;;1.99;79.57;101221.06;6237929;22;20040;-70
2022/12/25 05:17:06;;;;;;;41.40;15.32;;;;;;;1.99;80.06;101221.91;6228733;22;20004;-68
2022/12/25 05:19:33;;;;;;;41.58;16.10;;;;;;;1.97;80.50;101230.91;6237975;22;20032;-69
2022/12/25 05:22:00;;;;;;;43.47;15.52;;;;;;;2.03;80.42;101230.56;6239220;22;20020;-72
2022/12/25 05:24:27;;;;;;;54.97;16.48;;;;;;;2.00;80.15;101222.78;6232061;22;20032;-71
2022/12/25 05:26:54;;;;;;;44.03;15.05;;;;;;;2.02;80.25;101220.88;6238805;22;20013;-71
2022/12/25 05:29:20;;;;;;;49.53;16.95;;;;;;;2.05;80.22;101220.69;6239471;22;20004;-71
2022/12/25 05:31:46;;;;;;;50.13;16.52;;;;;;;1.84;80.72;101220.16;6238417;22;20031;-69
2022/12/25 05:34:13;;;;;;;47.30;16.30;;;;;;;2.03;80.05;101217.31;6229186;22;20042;-69
2022/12/25 05:36:39;;;;;;;43.35;15.82;;;;;;;1.93;80.36;101217.84;6248910;22;20027;-70
2022/12/25 05:39:06;;;;;;;55.78;16.17;;;;;;;1.92;80.69;101221.47;6238021;22;20012;-68
2022/12/25 05:41:32;;;;;;;47.92;16.33;;;;;;;2.01;80.43;101225.34;6239821;22;20076;-71
2022/12/25 05:44:00;;;;;;;61.22;17.95;;;;;;;2.08;79.77;101229.31;6236293;23;20081;-70
2022/12/25 05:46:27;;;;;;;55.88;16.65;;;;;;;2.04;80.03;101219.00;6236755;22;20064;-71
2022/12/25 05:48:53;;;;;;;49.38;16.90;;;;;;;1.92;80.22;101210.88;6237353;22;20028;-72
2022/12/25 05:51:20;;;;;;;51.75;15.93;;;;;;;2.00;79.60;101212.22;6237532;22;20024;-72
2022/12/25 05:53:46;;;;;;;56.50;17.08;;;;;;;1.94;80.14;101203.69;6249065;22;20072;-70
2022/12/25 05:56:13;;;;;;;45.28;16.35;;;;;;;2.00;80.53;101202.47;6228253;23;20017;-68
2022/12/25 05:58:39;;;;;;;43.72;15.45;;;;;;;1.95;79.47;101205.38;6237203;22;20105;-69
2022/12/25 06:01:11;;;;;;;40.85;17.20;;;;;;;1.84;79.67;101201.66;6238432;23;20016;-70
2022/12/25 06:03:37;;;;;;;;;;;;;;;1.76;79.90;101203.91;6237552;23;20036;-69
2022/12/25 06:06:06;;;;;;;43.22;15.15;;;;;;;1.84;79.83;101201.66;6238417;22;19920;-71
2022/12/25 06:08:33;;;;;;;36.58;13.77;;;;;;;1.65;80.19;101199.25;6237446;22;20020;-72
2022/12/25 06:11:03;;;;;;;46.15;14.48;;;;;;;1.35;79.45;101199.25;6237086;23;20015;-72
2022/12/25 06:13:30;;;;;;;41.15;13.07;;;;;;;1.39;80.13;101206.06;6237584;22;20064;-70
2022/12/25 06:15:57;;;;;;;33.92;12.82;;;;;;;1.37;80.36;101192.06;6238184;22;20035;-70
2022/12/25 06:18:25;;;;;;;36.05;12.30;;;;;;;1.29;80.52;101192.53;6237748;23;20024;-72
2022/12/25 06:20:51;;;;;;;27.63;12.93;;;;;;;1.25;80.66;101183.06;6238558;22;20024;-70
2022/12/25 06:23:18;;;;;;;35.83;14.50;;;;;;;1.17;80.88;101172.94;6238976;22;20009;-69
2022/12/25 06:25:44;;;;;;;28.10;13.93;;;;;;;1.21;81.38;101186.84;6239120;22;20021;-70
2022/12/25 06:28:11;;;;;;;34.97;13.77;;;;;;;1.34;81.34;101187.00;6240175;22;20004;-68
2022/12/25 06:30:38;;;;;;;40.60;15.40;;;;;;;1.44;80.73;101196.94;6239607;23;20036;-68
2022/12/25 06:33:04;;;;;;;43.58;14.85;;;;;;;1.38;80.88;101202.56;6240822;23;20055;-73
2022/12/25 06:35:31;;;;;;;38.83;16.20;;;;;;;1.45;79.92;101193.34;6239095;22;20040;-72
2022/12/25 06:37:57;;;;;;;35.00;14.90;;;;;;;0.85;81.47;101190.66;6239614;22;20029;-71
2022/12/25 06:40:24;;;;;;;33.05;14.85;;;;;;;0.77;81.68;101200.78;6239445;22;20040;-70
2022/12/25 06:42:50;;;;;;;41.08;15.15;;;;;;;0.33;83.32;101193.50;6233644;22;20029;-70
2022/12/25 06:45:17;;;;;;;36.53;15.55;;;;;;;0.49;83.63;101197.00;6238855;22;20047;-70
2022/12/25 06:47:43;;;;;;;32.08;15.88;;;;;;;0.62;82.83;101201.63;6239728;22;20012;-68
2022/12/25 06:50:10;;;;;;;44.67;15.48;;;;;;;0.52;83.65;101199.47;6238482;22;20007;-70
2022/12/25 06:52:36;;;;;;;48.67;16.05;;;;;;;0.72;82.71;101211.59;6232130;22;20060;-69
2022/12/25 06:55:03;;;;;;;50.35;15.40;;;;;;;0.61;82.29;101210.50;6238889;23;20032;-71
2022/12/25 06:57:29;;;;;;;43.97;14.65;;;;;;;0.46;82.69;101223.56;6238872;22;20008;-70
2022/12/25 06:59:56;;;;;;;89.95;14.50;;;;;;;0.47;82.58;101227.09;6239503;22;20039;-71
2022/12/25 07:02:23;;;;;;;57.17;14.60;;;;;;;0.50;82.90;101238.31;6226072;22;20024;-70
2022/12/25 07:04:51;;;;;;;197.40;16.52;;;;;;;0.26;82.65;101247.53;6238077;23;20009;-72
2022/12/25 07:07:18;;;;;;;56.03;12.52;;;;;;;0.22;83.46;101238.91;6239106;22;20028;-72
2022/12/25 07:09:44;;;;;;;183.98;17.45;;;;;;;0.14;83.60;101230.56;6238089;22;20032;-70
2022/12/25 07:12:18;;;;;;;135.35;12.45;;;;;;;0.23;83.11;101232.72;6239323;22;20031;-69
2022/12/25 07:14:48;;;;;;;62.45;12.23;;;;;;;0.20;83.26;101245.22;6238993;23;20027;-70
2022/12/25 07:17:16;;;;;;;43.08;12.32;;;;;;;0.49;82.70;101238.41;6238174;23;20076;-70
2022/12/25 07:19:43;;;;;;;71.38;12.95;;;;;;;0.47;82.53;101245.56;6238596;23;20004;-70
2022/12/25 07:22:11;;;;;;;54.58;13.43;;;;;;;0.20;82.83;101247.88;6236896;23;20044;-69
2022/12/25 07:24:38;;;;;;;37.15;13.15;;;;;;;0.19;82.84;101243.50;6250580;23;20020;-72
2022/12/25 07:27:05;;;;;;;41.78;12.57;;;;;;;0.29;83.20;101247.38;6236184;23;20009;-72
2022/12/25 07:29:31;;;;;;;36.65;11.70;;;;;;;0.33;82.26;101258.63;6235558;23;20031;-72
2022/12/25 07:31:58;;;;;;;65.72;13.13;;;;;;;-0.05;83.35;101259.69;6234086;23;20028;-72
2022/12/25 07:34:25;;;;;;;60.58;13.88;;;;;;;0.11;82.72;101266.81;6238313;23;20024;-72
2022/12/25 07:36:53;;;;;;;52.13;11.88;;;;;;;0.19;82.46;101264.63;6237443;23;20032;-72
2022/12/25 07:39:20;;;;;;;70.05;13.20;;;;;;;0.04;82.31;101261.84;6236682;23;20028;-71
2022/12/25 07:41:46;;;;;;;52.33;12.27;;;;;;;0.41;81.89;101265.22;6236346;23;20012;-71
2022/12/25 07:44:13;;;;;;;38.97;13.13;;;;;;;0.36;81.86;101266.38;6227362;23;20024;-71
2022/12/25 07:46:40;;;;;;;110.88;14.60;;;;;;;-0.11;82.33;101273.19;6248171;23;20036;-71
2022/12/25 07:49:06;;;;;;;29.23;12.05;;;;;;;0.34;82.39;101266.47;6236660;23;20051;-73
2022/12/25 07:51:33;;;;;;;33.95;12.32;;;;;;;0.29;82.02;101265.84;6237033;23;20073;-73
2022/12/25 07:53:59;;;;;;;73.38;13.15;;;;;;;0.17;81.83;101261.22;6232629;23;20044;-73
2022/12/25 07:56:26;;;;;;;38.55;11.57;;;;;;;0.10;82.76;101258.03;6231532;23;20024;-73
2022/12/25 07:58:52;;;;;;;39.40;12.10;;;;;;;0.07;82.68;101246.81;6230592;23;20028;-73
2022/12/25 08:01:22;;;;;;;36.88;11.70;;;;;;;0.24;82.63;101263.44;6231681;23;20047;-72
2022/12/25 08:03:51;;;;;;;69.78;12.75;;;;;;;0.17;82.54;101266.50;6229952;23;20035;-72
2022/12/25 08:06:19;;;;;;;65.00;13.13;;;;;;;0.21;82.35;101268.03;6226106;23;20023;-73
2022/12/25 08:08:45;;;;;;;47.78;12.32;;;;;;;0.32;82.43;101270.13;6230472;23;20048;-72
2022/12/25 08:11:13;;;;;;;38.88;13.85;;;;;;;0.28;82.33;101265.00;6229379;23;20031;-71
2022/12/25 08:13:39;;;;;;;36.67;13.48;;;;;;;0.46;82.30;101262.31;6227952;23;20087;-73
2022/12/25 08:16:08;;;;;;;40.58;12.50;;;;;;;0.50;81.77;101256.81;6227533;23;20100;-72
2022/12/25 08:18:36;;;;;;;63.42;12.05;;;;;;;0.29;81.86;101268.47;6227116;23;20051;-71
2022/12/25 08:21:05;;;;;;;50.30;11.77;;;;;;;0.38;82.84;101256.59;6226938;23;20020;-73
2022/12/25 08:23:33;;;;;;;32.28;11.13;;;;;;;0.62;82.11;101255.28;6227394;23;20040;-73
2022/12/25 08:26:01;;;;;;;57.47;12.55;;;;;;;0.78;82.01;101255.31;6227831;23;20030;-72
2022/12/25 08:28:32;;;;;;;35.30;13.90;;;;;;;0.88;81.21;101247.72;6229189;23;20076;-72
2022/12/25 08:30:58;;;;;;;49.58;14.70;;;;;;;1.10;80.57;101244.75;6229277;23;20031;-73
2022/12/25 08:33:25;;;;;;;41.90;13.57;;;;;;;1.29;79.84;101241.91;6228687;23;20020;-73
2022/12/25 08:35:52;;;;;;;27.30;12.50;;;;;;;1.32;80.27;101254.94;6228795;23;20084;-73
2022/12/25 08:38:18;;;;;;;34.13;13.02;;;;;;;1.08;80.71;101249.25;6230072;23;20076;-71
2022/12/25 08:40:45;;;;;;;33.58;13.27;;;;;;;1.24;80.52;101256.22;6228106;23;20020;-71
2022/12/25 08:43:11;;;;;;;32.05;13.48;;;;;;;1.18;80.37;101243.34;6232120;23;20012;-71
2022/12/25 08:45:38;;;;;;;46.50;13.98;;;;;;;1.57;80.36;101236.72;6231808;23;20025;-73
2022/12/25 08:48:04;;;;;;;34.65;12.45;;;;;;;1.32;80.05;101234.66;6231232;23;20036;-73
2022/12/25 08:50:31;;;;;;;43.90;14.48;;;;;;;1.58;79.70;101237.59;6228957;23;20068;-72
2022/12/25 08:52:57;;;;;;;35.67;14.55;;;;;;;1.69;79.34;101227.22;6229959;23;20034;-74
2022/12/25 08:55:24;;;;;;;38.85;14.32;;;;;;;1.89;79.02;101228.69;6231628;23;20031;-73
2022/12/25 08:57:52;;;;;;;35.78;14.18;;;;;;;2.12;79.30;101230.81;6230225;23;20055;-74
2022/12/25 09:00:19;;;;;;;37.10;13.48;;;;;;;2.11;78.38;101222.97;6230908;23;20021;-70
2022/12/25 09:02:46;;;;;;;26.23;13.93;;;;;;;2.38;78.38;101208.06;6231616;23;20080;-71
2022/12/25 09:05:12;;;;;;;31.80;14.05;;;;;;;2.09;77.35;101214.28;6230558;23;20037;-72
2022/12/25 09:07:39;;;;;;;33.20;12.85;;;;;;;2.09;77.54;101211.63;6230496;23;20085;-71
2022/12/25 09:10:06;;;;;;;30.27;14.05;;;;;;;2.09;78.36;101215.13;6229464;23;20025;-73
2022/12/25 09:12:32;;;;;;;30.73;11.35;;;;;;;1.91;78.28;101205.63;6227823;23;20097;-72
2022/12/25 09:15:01;;;;;;;30.20;13.38;;;;;;;2.10;78.23;101203.63;6228547;23;20036;-73
2022/12/25 09:17:27;;;;;;;27.40;14.48;;;;;;;2.26;77.58;101192.91;6229710;23;20021;-72
2022/12/25 09:19:54;;;;;;;25.35;12.25;;;;;;;2.11;77.90;101191.22;6230838;23;20028;-72
2022/12/25 09:22:20;;;;;;;28.02;12.73;;;;;;;1.96;77.81;101200.97;6231824;23;20040;-72
2022/12/25 09:24:46;;;;;;;24.27;11.18;;;;;;;1.69;78.74;101204.28;6228712;23;20076;-72
2022/12/25 09:27:13;;;;;;;26.73;11.48;;;;;;;1.81;78.80;101204.47;6229666;23;20039;-72
2022/12/25 09:29:40;;;;;;;25.23;12.45;;;;;;;2.03;78.03;101202.28;6231144;23;20076;-71
2022/12/25 09:32:07;;;;;;;27.80;12.23;;;;;;;2.15;77.36;101209.47;6230691;23;20027;-72
2022/12/25 09:34:34;;;;;;;27.38;12.35;;;;;;;2.15;77.24;101208.63;6240428;23;20027;-73
2022/12/25 09:37:01;;;;;;;25.30;12.75;;;;;;;1.18;80.53;101208.16;6229405;23;20021;-72
2022/12/25 09:39:27;;;;;;;33.17;14.18;;;;;;;1.38;81.18;101207.00;6230248;23;20099;-72
2022/12/25 09:42:00;;;;;;;40.63;15.35;;;;;;;1.53;79.53;101205.25;6230656;23;20036;-71
2022/12/25 09:44:34;;;;;;;36.83;15.38;;;;;;;1.42;80.50;101203.25;6229184;23;20036;-72
2022/12/25 09:47:02;;;;;;;50.95;16.30;;;;;;;1.51;80.54;101207.13;6229802;23;20023;-72
2022/12/25 09:49:50;;;;;;;41.13;16.58;;;;;;;1.69;79.31;101195.50;6230628;23;20028;-74
2022/12/25 09:52:33;;;;;;;39.72;16.08;;;;;;;2.03;78.82;101197.00;6230057;23;20088;-73
2022/12/25 09:55:20;;;;;;;105.57;17.70;;;;;;;0.79;82.14;101196.25;6230471;23;20024;-74
2022/12/25 09:57:51;;;;;;;80.25;17.48;;;;;;;0.82;83.18;101198.75;6232808;23;20017;-72
2022/12/25 10:00:23;;;;;;;50.15;17.48;;;;;;;0.94;83.95;101184.81;6230188;23;20326;-73
2022/12/25 10:03:14;;;;;;;95.82;17.75;;;;;;;0.93;83.22;101196.34;6226259;22;20457;-72
2022/12/25 10:05:54;;;;;;;55.80;14.52;;;;;;;1.63;81.85;101201.13;6232796;23;20090;-73
2022/12/25 10:08:32;;;;;;;52.95;19.23;;;;;;;1.85;81.13;101204.19;6232749;23;20025;-72
2022/12/25 10:11:14;;;;;;;41.97;18.15;;;;;;;2.07;79.67;101210.88;6232708;23;20032;-73
2022/12/25 10:13:53;;;;;;;47.38;18.20;;;;;;;2.12;78.89;101203.50;6232007;23;20028;-73
2022/12/25 10:16:20;;;;;;;45.13;18.42;;;;;;;2.31;78.94;101201.44;6227815;23;20023;-72
2022/12/25 10:19:00;;;;;;;34.67;17.40;;;;;;;2.45;78.01;101205.03;6234075;23;20052;-74
2022/12/25 10:21:27;;;;;;;40.45;17.23;;;;;;;2.58;78.04;101195.34;6230188;22;20016;-71
2022/12/25 10:23:56;;;;;;;33.20;16.40;;;;;;;2.77;77.36;101200.34;6233600;23;20085;-72
2022/12/25 10:26:24;;;;;;;31.02;14.90;;;;;;;2.53;77.95;101194.78;6224243;23;20020;-72
2022/12/25 10:29:14;;;;;;;35.67;15.73;;;;;;;2.67;77.62;101192.13;6248455;23;20024;-72
2022/12/25 10:31:44;;;;;;;38.22;15.68;;;;;;;2.58;78.17;101198.00;6230412;23;20020;-71
2022/12/25 10:34:12;;;;;;;43.67;16.20;;;;;;;2.13;78.88;101195.50;6231138;23;20051;-72
2022/12/25 10:36:40;;;;;;;40.03;15.43;;;;;;;2.13;79.36;101190.19;6230611;23;20021;-72
2022/12/25 10:39:14;;;;;;;30.98;16.25;;;;;;;2.45;78.37;101182.03;6229666;23;20027;-72
2022/12/25 10:42:18;;;;;;;36.20;17.58;;;;;;;2.53;78.64;101173.59;6231868;23;20073;-72
2022/12/25 10:44:59;;;;;;;34.90;18.30;;;;;;;2.73;78.16;101169.69;6231025;23;20024;-73
2022/12/25 10:47:30;;;;;;;43.70;18.60;;;;;;;2.70;77.87;101157.50;6231958;23;20016;-72
2022/12/25 10:49:57;;;;;;;37.42;17.45;;;;;;;2.90;77.43;101161.50;6230662;22;20372;-72
2022/12/25 10:52:27;;;;;;;34.40;18.13;;;;;;;2.86;77.20;101157.34;6231019;23;20044;-73
2022/12/25 10:54:55;;;;;;;41.38;18.67;;;;;;;2.70;77.58;101154.00;6229493;23;20016;-73
2022/12/25 10:57:23;;;;;;;35.28;17.30;;;;;;;2.71;77.39;101156.53;6229980;23;20024;-73
2022/12/25 10:59:54;;;;;;;37.00;19.48;;;;;;;2.73;77.91;101154.66;6232632;23;20081;-72
2022/12/25 11:02:26;;;;;;;40.60;19.52;;;;;;;2.63;78.24;101158.84;6231460;23;20048;-73
2022/12/25 11:05:08;;;;;;;39.92;18.52;;;;;;;2.47;78.46;101150.16;6227573;23;20017;-73
2022/12/25 11:07:45;;;;;;;44.50;17.55;;;;;;;2.63;78.88;101154.38;6227968;23;20051;-71
2022/12/25 11:10:31;;;;;;;34.03;18.70;;;;;;;2.34;78.95;101160.66;6230873;23;20024;-72
2022/12/25 11:12:59;;;;;;;34.00;18.67;;;;;;;2.56;79.37;101158.38;6230122;23;20036;-73
2022/12/25 11:15:39;;;;;;;39.80;18.98;;;;;;;2.23;78.91;101163.97;6228851;23;20024;-71
2022/12/25 11:18:21;;;;;;;34.95;17.73;;;;;;;2.25;79.96;101175.34;6227768;23;20052;-72
2022/12/25 11:20:53;;;;;;;39.97;20.00;;;;;;;2.56;79.26;101152.22;6230290;23;20015;-72
2022/12/25 11:23:22;;;;;;;42.60;19.63;;;;;;;2.42;79.80;101159.25;6229941;23;20020;-72
2022/12/25 11:26:05;;;;;;;47.83;21.27;;;;;;;2.62;79.65;101152.69;6231141;23;20031;-73
2022/12/25 11:28:35;;;;;;;39.05;21.30;;;;;;;2.94;78.50;101156.84;6228768;23;20048;-73
2022/12/25 11:31:11;;;;;;;37.00;20.35;;;;;;;2.91;78.11;101156.09;6227459;23;20027;-72
2022/12/25 11:33:49;;;;;;;41.30;20.92;;;;;;;3.01;77.68;101152.84;6227187;23;20020;-72
2022/12/25 11:36:27;;;;;;;42.35;20.08;;;;;;;3.22;77.50;101159.38;6228054;23;20036;-74
2022/12/25 11:38:53;;;;;;;42.28;22.27;;;;;;;3.10;78.22;101149.56;6229056;23;20016;-72
2022/12/25 11:41:26;;;;;;;37.83;20.38;;;;;;;3.10;77.79;101131.91;6226230;23;20025;-73
2022/12/25 11:43:58;;;;;;;38.97;21.40;;;;;;;3.03;77.77;101119.13;6228253;23;20047;-74
2022/12/25 11:46:32;;;;;;;51.33;24.60;;;;;;;2.99;78.43;101122.94;6229388;23;20025;-73
2022/12/25 11:49:04;;;;;;;46.55;23.73;;;;;;;3.05;78.18;101088.06;6230772;23;20020;-71
2022/12/25 11:51:35;;;;;;;48.20;23.92;;;;;;;3.07;78.09;101083.53;6231417;23;20454;-72
2022/12/25 11:54:32;;;;;;;45.75;25.30;;;;;;;2.84;79.01;101072.66;6230134;23;20077;-73
2022/12/25 11:57:03;;;;;;;48.95;24.38;;;;;;;2.79;78.98;101053.56;6230756;23;20084;-72
2022/12/25 11:59:54;;;;;;;44.13;24.35;;;;;;;2.93;78.69;101054.44;6230841;23;20203;-73
2022/12/25 12:02:27;;;;;;;44.30;24.53;;;;;;;2.97;78.08;101055.94;6238646;23;20072;-73
2022/12/25 12:05:06;;;;;;;50.30;24.55;;;;;;;3.20;77.79;101052.56;6230350;23;20068;-74
2022/12/25 12:07:34;;;;;;;43.90;23.25;;;;;;;3.02;78.57;101048.53;6224638;23;20040;-72
2022/12/25 12:10:16;;;;;;;38.40;21.50;;;;;;;3.29;77.72;101059.06;6220178;23;20012;-70
2022/12/25 12:13:10;;;;;;;42.30;20.88;;;;;;;3.17;77.96;101052.81;6224898;23;20465;-74
2022/12/25 12:15:42;;;;;;;38.85;20.83;;;;;;;3.34;77.73;101057.81;6210271;23;20021;-73
2022/12/25 12:18:25;;;;;;;42.28;20.05;;;;;;;3.30;77.61;101068.69;6209026;23;20036;-72
2022/12/25 12:21:16;;;;;;;37.00;20.25;;;;;;;3.25;78.29;101065.53;6204842;23;20024;-71
2022/12/25 12:24:15;;;;;;;32.87;17.93;;;;;;;3.19;78.47;101066.78;6210106;23;20123;-72
2022/12/25 12:26:44;;;;;;;41.92;19.70;;;;;;;3.39;78.13;101052.19;6197834;23;20044;-72
2022/12/25 12:29:28;;;;;;;37.25;19.15;;;;;;;3.36;78.56;101039.97;6207602;23;20104;-72
2022/12/25 12:32:02;;;;;;;37.90;16.98;;;;;;;3.51;77.97;101031.91;6209546;23;20107;-73
2022/12/25 12:34:46;;;;;;;37.10;17.55;;;;;;;3.45;78.39;101027.00;6209327;23;20020;-73
2022/12/25 12:37:35;;;;;;;40.72;16.88;;;;;;;3.30;78.86;101031.56;6205882;23;20096;-72
2022/12/25 12:40:04;;;;;;;36.45;16.90;;;;;;;3.42;78.40;101033.41;6209510;23;20020;-72
2022/12/25 12:42:39;;;;;;;35.75;17.33;;;;;;;3.45;78.42;101040.28;6208679;23;20261;-72
2022/12/25 12:45:17;;;;;;;35.03;17.02;;;;;;;3.55;78.17;101046.63;6142684;23;20020;-73
2022/12/25 12:47:46;;;;;;;45.25;18.27;;;;;;;3.56;77.73;101048.34;6215224;23;20071;-73
2022/12/25 12:50:27;;;;;;;34.88;17.42;;;;;;;3.46;78.35;101034.88;6206661;23;20021;-72
2022/12/25 12:52:54;;;;;;;35.47;17.92;;;;;;;3.45;78.67;101027.88;6209624;23;20509;-73
2022/12/25 12:55:29;;;;;;;34.00;16.23;;;;;;;3.42;78.72;101036.06;6204844;23;20028;-72
2022/12/25 12:58:04;;;;;;;38.47;15.57;;;;;;;3.49;78.53;101028.53;6212711;23;20103;-73
2022/12/25 13:00:50;;;;;;;31.05;14.80;;;;;;;3.57;78.69;101020.84;6214235;23;20096;-71
2022/12/25 13:03:33;;;;;;;39.72;15.77;;;;;;;3.52;79.24;101023.00;6206639;23;20051;-72
2022/12/25 13:06:07;;;;;;;31.48;15.38;;;;;;;3.47;79.10;101038.38;6210449;23;20020;-72
2022/12/25 13:08:45;;;;;;;33.20;14.80;;;;;;;3.53;78.96;101027.34;6210889;23;20017;-72
2022/12/25 13:11:34;;;;;;;34.35;14.80;;;;;;;3.57;79.20;101034.13;6210161;23;20023;-72
2022/12/25 13:14:02;;;;;;;30.42;14.30;;;;;;;3.52;79.24;101036.25;6211592;23;20024;-73